createdAt,value
2022-12-19T00:01:33.790Z,-1.91
2022-12-19T00:04:05.460Z,-1.77
2022-12-19T00:06:35.798Z,-1.87
2022-12-19T00:09:02.460Z,-1.81
2022-12-19T00:11:29.763Z,-1.88
2022-12-19T00:13:56.233Z,-1.94
2022-12-19T00:16:25.670Z,-1.86
2022-12-19T00:18:55.286Z,-1.87
2022-12-19T00:21:24.674Z,-1.97
2022-12-19T00:23:52.176Z,-1.91
2022-12-19T00:26:20.201Z,-1.87
2022-12-19T00:28:49.033Z,-1.91
2022-12-19T00:31:17.103Z,-1.96
2022-12-19T00:33:44.372Z,-1.99
2022-12-19T00:36:13.573Z,-1.96
2022-12-19T00:38:42.585Z,-1.90
2022-12-19T00:41:13.340Z,-1.98
2022-12-19T00:43:40.245Z,-1.94
2022-12-19T00:46:09.162Z,-1.89
2022-12-19T00:48:36.898Z,-1.78
2022-12-19T00:51:21.161Z,-1.88
2022-12-19T00:53:49.220Z,-1.84
2022-12-19T00:56:18.577Z,-1.73
2022-12-19T00:58:47.338Z,-1.84
2022-12-19T01:01:36.057Z,-1.86
2022-12-19T01:04:27.752Z,-1.87
2022-12-19T01:06:51.193Z,-1.91
2022-12-19T01:09:18.249Z,-1.80
2022-12-19T01:12:03.554Z,-1.70
2022-12-19T01:14:30.034Z,-1.74
2022-12-19T01:16:56.576Z,-1.80
2022-12-19T01:19:23.036Z,-1.80
2022-12-19T01:21:49.564Z,-1.74
2022-12-19T01:24:19.159Z,-1.77
2022-12-19T01:26:46.408Z,-1.83
2022-12-19T01:29:13.070Z,-1.89
2022-12-19T01:31:39.561Z,-1.75
2022-12-19T01:34:06.033Z,-1.84
2022-12-19T01:36:32.497Z,-1.73
2022-12-19T01:38:58.888Z,-1.84
2022-12-19T01:41:25.686Z,-1.86
2022-12-19T01:44:02.200Z,-1.82
2022-12-19T01:46:47.575Z,-1.81
2022-12-19T01:49:32.030Z,-1.65
2022-12-19T01:52:05.837Z,-1.77
2022-12-19T01:54:38.500Z,-1.75
2022-12-19T01:57:08.798Z,-1.67
2022-12-19T01:59:43.714Z,-1.66
2022-12-19T02:02:25.385Z,-1.64
2022-12-19T02:04:51.942Z,-1.58
2022-12-19T02:07:20.303Z,-1.63
2022-12-19T02:09:53.014Z,-1.60
2022-12-19T02:12:25.707Z,-1.60
2022-12-19T02:14:53.386Z,-1.58
2022-12-19T02:17:51.339Z,-1.55
2022-12-19T02:21:05.719Z,-1.58
2022-12-19T02:23:50.447Z,-1.56
2022-12-19T02:26:38.558Z,-1.63
2022-12-19T02:29:26.776Z,-1.55
2022-12-19T02:32:07.220Z,-1.51
2022-12-19T02:34:44.658Z,-1.48
2022-12-19T02:37:23.296Z,-1.47
2022-12-19T02:39:55.215Z,-1.53
2022-12-19T02:42:30.609Z,-1.46
2022-12-19T02:45:01.190Z,-1.48
2022-12-19T02:47:29.966Z,-1.47
2022-12-19T02:49:56.606Z,-1.51
2022-12-19T02:52:23.000Z,-1.47
2022-12-19T02:54:52.292Z,-1.45
2022-12-19T02:57:28.261Z,-1.37
2022-12-19T03:00:12.159Z,-1.32
2022-12-19T03:03:03.095Z,-1.30
2022-12-19T03:06:02.067Z,-1.27
2022-12-19T03:08:46.775Z,-1.30
2022-12-19T03:11:15.383Z,-1.34
2022-12-19T03:14:10.742Z,-1.45
2022-12-19T03:16:38.072Z,-1.38
2022-12-19T03:19:11.238Z,-1.30
2022-12-19T03:21:49.437Z,-1.30
2022-12-19T03:24:17.851Z,-1.27
2022-12-19T03:26:47.003Z,-1.29
2022-12-19T03:29:38.247Z,-1.26
2022-12-19T03:32:09.031Z,-1.20
2022-12-19T03:34:43.163Z,-1.31
2022-12-19T03:37:15.473Z,-1.27
2022-12-19T03:39:45.530Z,-1.34
2022-12-19T03:42:32.504Z,-1.17
2022-12-19T03:45:02.223Z,-1.20
2022-12-19T03:47:38.242Z,-1.17
2022-12-19T03:50:05.243Z,-1.21
2022-12-19T03:52:53.347Z,-1.18
2022-12-19T03:55:29.762Z,-1.02
2022-12-19T03:58:01.816Z,-1.10
2022-12-19T04:00:31.092Z,-1.06
2022-12-19T04:02:59.276Z,-1.14
2022-12-19T04:05:28.297Z,-1.01
2022-12-19T04:08:02.692Z,-1.19
2022-12-19T04:10:30.100Z,-1.07
2022-12-19T04:13:20.155Z,-1.02
2022-12-19T04:15:58.623Z,-0.93
2022-12-19T04:18:26.083Z,-1.01
2022-12-19T04:21:01.156Z,-1.08
2022-12-19T04:23:33.337Z,-1.12
2022-12-19T04:26:05.103Z,-1.03
2022-12-19T04:28:48.496Z,-0.98
2022-12-19T04:31:16.962Z,-1.04
2022-12-19T04:33:43.537Z,-0.96
2022-12-19T04:36:11.019Z,-0.96
2022-12-19T04:38:37.623Z,-0.90
2022-12-19T04:41:04.134Z,-0.94
2022-12-19T04:43:30.661Z,-0.92
2022-12-19T04:45:57.809Z,-0.86
2022-12-19T04:48:25.212Z,-0.74
2022-12-19T04:50:51.838Z,-0.76
2022-12-19T04:53:18.223Z,-0.82
2022-12-19T04:55:44.697Z,-0.79
2022-12-19T04:58:11.517Z,-0.72
2022-12-19T05:00:38.281Z,-0.75
2022-12-19T05:03:04.856Z,-0.78
2022-12-19T05:05:31.510Z,-0.86
2022-12-19T05:07:58.042Z,-0.87
2022-12-19T05:10:24.732Z,-0.95
2022-12-19T05:12:51.256Z,-0.84
2022-12-19T05:15:17.696Z,-0.77
2022-12-19T05:17:44.100Z,-0.68
2022-12-19T05:20:11.042Z,-0.74
2022-12-19T05:22:37.488Z,-0.70
2022-12-19T05:25:04.257Z,-0.57
2022-12-19T05:27:30.856Z,-0.67
2022-12-19T05:29:57.350Z,-0.59
2022-12-19T05:32:23.799Z,-0.62
2022-12-19T05:34:50.193Z,-0.60
2022-12-19T05:37:16.665Z,-0.50
2022-12-19T05:39:43.081Z,-0.47
2022-12-19T05:42:12.261Z,-0.37
2022-12-19T05:44:39.022Z,-0.43
2022-12-19T05:47:05.590Z,-0.58
2022-12-19T05:49:32.079Z,-0.52
2022-12-19T05:51:58.525Z,-0.60
2022-12-19T05:54:25.894Z,-0.53
2022-12-19T05:56:52.350Z,-0.45
2022-12-19T05:59:18.826Z,-0.30
2022-12-19T06:01:45.336Z,-0.28
2022-12-19T06:04:11.966Z,-0.12
2022-12-19T06:06:38.463Z,-0.25
2022-12-19T06:09:04.932Z,-0.13
2022-12-19T06:11:31.414Z,-0.14
2022-12-19T06:13:57.880Z,0.03
2022-12-19T06:16:24.647Z,0.01
2022-12-19T06:18:51.445Z,0.16
2022-12-19T06:21:22.850Z,0.16
2022-12-19T06:23:49.302Z,0.08
2022-12-19T06:26:19.766Z,0.24
2022-12-19T06:28:48.301Z,0.06
2022-12-19T06:31:15.728Z,-0.04
2022-12-19T06:33:42.270Z,-0.04
2022-12-19T06:36:17.123Z,0.02
2022-12-19T06:38:43.611Z,-0.05
2022-12-19T06:41:29.446Z,-0.12
2022-12-19T06:44:03.508Z,-0.06
2022-12-19T06:46:30.770Z,0.01
2022-12-19T06:48:57.277Z,0.02
2022-12-19T06:51:23.894Z,0.12
2022-12-19T06:53:50.626Z,0.12
2022-12-19T06:56:18.257Z,-0.03
2022-12-19T06:58:44.811Z,-0.03
2022-12-19T07:01:19.445Z,0.21
2022-12-19T07:03:47.511Z,0.16
2022-12-19T07:06:14.185Z,0.28
2022-12-19T07:08:40.704Z,0.33
2022-12-19T07:11:07.174Z,0.40
2022-12-19T07:13:33.676Z,0.41
2022-12-19T07:16:02.379Z,0.28
2022-12-19T07:18:32.053Z,0.33
2022-12-19T07:20:58.509Z,0.49
2022-12-19T07:23:25.033Z,0.38
2022-12-19T07:25:51.491Z,0.44
2022-12-19T07:28:18.411Z,0.44
2022-12-19T07:30:45.172Z,0.49
2022-12-19T07:33:13.617Z,0.47
2022-12-19T07:35:43.526Z,0.51
2022-12-19T07:38:10.014Z,0.45
2022-12-19T07:40:36.550Z,0.57
2022-12-19T07:43:05.630Z,0.49
2022-12-19T07:45:33.023Z,0.51
2022-12-19T07:48:03.620Z,0.56
2022-12-19T07:50:30.526Z,0.61
2022-12-19T07:52:58.261Z,0.59
2022-12-19T07:55:26.105Z,0.54
2022-12-19T07:57:53.601Z,0.47
2022-12-19T08:00:20.288Z,0.49
2022-12-19T08:02:47.661Z,0.50
2022-12-19T08:05:14.272Z,0.55
2022-12-19T08:07:41.123Z,0.58
2022-12-19T08:10:08.482Z,0.64
2022-12-19T08:12:34.986Z,0.66
2022-12-19T08:15:01.445Z,0.72
2022-12-19T08:17:27.937Z,0.70
2022-12-19T08:19:54.401Z,0.73
2022-12-19T08:22:20.838Z,0.73
2022-12-19T08:24:47.268Z,0.72
2022-12-19T08:27:15.735Z,0.69
2022-12-19T08:29:42.164Z,0.70
2022-12-19T08:32:08.547Z,0.64
2022-12-19T08:34:35.543Z,0.63
2022-12-19T08:37:01.981Z,0.74
2022-12-19T08:39:28.453Z,0.77
2022-12-19T08:41:54.845Z,0.80
2022-12-19T08:44:21.352Z,0.76
2022-12-19T08:46:50.241Z,1.13
2022-12-19T08:49:17.331Z,0.81
2022-12-19T08:51:43.746Z,0.78
2022-12-19T08:54:11.598Z,0.78
2022-12-19T08:56:41.965Z,0.94
2022-12-19T08:59:15.862Z,0.85
2022-12-19T09:01:52.195Z,0.75
2022-12-19T09:05:44.314Z,0.81
2022-12-19T09:07:05.199Z,0.85
2022-12-19T09:09:32.710Z,0.94
2022-12-19T09:11:59.285Z,1.07
2022-12-19T09:14:25.685Z,0.92
2022-12-19T09:16:52.237Z,1.24
2022-12-19T09:19:18.772Z,1.29
2022-12-19T09:21:45.399Z,1.11
2022-12-19T09:24:11.843Z,0.99
2022-12-19T09:26:39.353Z,1.08
2022-12-19T09:29:06.808Z,0.97
2022-12-19T09:31:47.091Z,0.98
2022-12-19T09:34:13.554Z,1.03
2022-12-19T09:36:39.941Z,1.02
2022-12-19T09:39:06.434Z,0.87
2022-12-19T09:41:41.969Z,1.01
2022-12-19T09:44:13.380Z,1.33
2022-12-19T09:46:47.559Z,1.19
2022-12-19T09:49:23.829Z,1.14
2022-12-19T09:52:00.980Z,1.09
2022-12-19T09:54:35.204Z,1.06
2022-12-19T09:57:06.192Z,1.09
2022-12-19T09:59:49.380Z,1.13
2022-12-19T10:02:35.319Z,1.11
2022-12-19T10:05:20.367Z,1.07
2022-12-19T10:08:09.474Z,1.22
2022-12-19T10:12:40.846Z,1.29
2022-12-19T10:13:59.005Z,1.10
2022-12-19T10:17:08.582Z,1.16
2022-12-19T10:20:16.129Z,1.38
2022-12-19T10:22:56.303Z,1.33
2022-12-19T10:25:41.259Z,1.65
2022-12-19T10:28:30.653Z,1.50
2022-12-19T10:31:22.713Z,1.31
2022-12-19T10:34:11.925Z,1.30
2022-12-19T10:37:12.935Z,1.23
2022-12-19T10:39:36.167Z,1.28
2022-12-19T10:42:15.825Z,1.56
2022-12-19T10:44:44.626Z,1.39
2022-12-19T10:47:16.318Z,1.34
2022-12-19T10:49:42.799Z,1.38
2022-12-19T10:52:12.481Z,1.50
2022-12-19T10:54:41.754Z,1.45
2022-12-19T10:57:28.975Z,1.54
2022-12-19T11:00:00.317Z,1.63
2022-12-19T11:02:32.796Z,1.41
2022-12-19T11:04:59.479Z,1.37
2022-12-19T11:07:26.005Z,1.43
2022-12-19T11:10:41.262Z,1.54
2022-12-19T11:17:09.989Z,1.43
2022-12-19T11:20:09.377Z,1.42
2022-12-19T11:28:41.122Z,1.46
2022-12-19T11:29:16.516Z,1.38
2022-12-19T11:30:41.453Z,1.39
2022-12-19T11:30:47.662Z,1.39
2022-12-19T11:33:18.639Z,1.65
2022-12-19T11:35:53.961Z,1.85
2022-12-19T11:38:44.460Z,1.62
2022-12-19T11:41:31.195Z,1.67
2022-12-19T11:44:28.040Z,1.72
2022-12-19T11:47:12.328Z,1.64
2022-12-19T11:49:44.845Z,2.03
2022-12-19T11:55:47.380Z,1.71
2022-12-19T11:58:14.358Z,1.62
2022-12-19T12:00:51.069Z,1.64
2022-12-19T12:03:29.227Z,1.69
2022-12-19T12:05:58.397Z,1.65
2022-12-19T12:12:09.532Z,1.67
2022-12-19T12:21:02.816Z,1.83
2022-12-19T12:25:06.115Z,1.71
2022-12-19T12:31:12.430Z,1.82
2022-12-19T12:31:13.775Z,1.78
2022-12-19T12:31:15.619Z,1.67
2022-12-19T12:31:43.274Z,1.81
2022-12-19T12:31:51.728Z,1.80
2022-12-19T12:35:38.559Z,1.82
2022-12-19T12:40:14.376Z,1.90
2022-12-19T12:43:05.560Z,1.90
2022-12-19T12:45:44.816Z,1.88
2022-12-19T12:48:38.371Z,1.87
2022-12-19T12:51:07.412Z,1.90
2022-12-19T12:53:40.926Z,2.00
2022-12-19T12:56:10.790Z,1.96
2022-12-19T12:58:50.132Z,2.00
2022-12-19T13:01:30.001Z,1.91
2022-12-19T13:04:01.199Z,1.98
2022-12-19T13:06:50.800Z,2.15
2022-12-19T13:09:26.187Z,2.15
2022-12-19T13:12:36.792Z,2.03
2022-12-19T13:15:22.010Z,1.96
2022-12-19T13:17:48.384Z,1.95
2022-12-19T13:20:18.967Z,1.91
2022-12-19T13:23:03.332Z,1.86
2022-12-19T13:25:32.587Z,1.91
2022-12-19T13:28:36.003Z,1.90
2022-12-19T13:31:20.550Z,1.92
2022-12-19T13:33:51.659Z,1.91
2022-12-19T13:39:48.336Z,1.94
2022-12-19T13:40:15.158Z,2.04
2022-12-19T13:43:29.487Z,2.00
2022-12-19T13:46:06.206Z,1.94
2022-12-19T13:48:37.506Z,1.97
2022-12-19T13:51:07.211Z,1.91
2022-12-19T13:53:34.817Z,1.88
2022-12-19T13:56:11.461Z,1.95
2022-12-19T13:58:47.296Z,1.86
2022-12-19T14:01:35.182Z,1.82
2022-12-19T14:04:09.192Z,1.80
2022-12-19T14:06:44.366Z,1.85
2022-12-19T14:11:25.742Z,1.80
2022-12-19T14:13:48.012Z,1.80
2022-12-19T14:15:52.329Z,1.81
2022-12-19T14:18:42.199Z,1.81
2022-12-19T14:22:05.554Z,1.81
2022-12-19T14:24:09.687Z,1.81
2022-12-19T14:28:23.379Z,1.84
2022-12-19T14:30:26.063Z,1.78
2022-12-19T14:33:40.779Z,1.84
2022-12-19T14:36:05.844Z,1.77
2022-12-19T14:39:22.085Z,1.74
2022-12-19T14:41:08.212Z,1.71
2022-12-19T14:43:57.608Z,1.68
2022-12-19T14:51:51.418Z,1.69
2022-12-19T14:54:01.416Z,1.66
2022-12-19T14:54:48.167Z,1.68
2022-12-19T14:56:08.435Z,1.63
2022-12-19T14:58:53.360Z,1.61
2022-12-19T15:01:31.866Z,1.58
2022-12-19T15:04:49.313Z,1.68
2022-12-19T15:07:07.862Z,1.57
2022-12-19T15:11:08.477Z,1.52
2022-12-19T15:14:52.222Z,1.40
2022-12-19T15:16:01.564Z,1.36
2022-12-19T15:18:39.733Z,1.33
2022-12-19T15:21:14.432Z,1.31
2022-12-19T15:23:43.457Z,1.28
2022-12-19T15:26:19.935Z,1.31
2022-12-19T15:28:54.731Z,1.22
2022-12-19T15:31:34.511Z,1.12
2022-12-19T15:34:34.914Z,1.13
2022-12-19T15:37:02.802Z,1.43
2022-12-19T15:39:32.101Z,1.15
2022-12-19T15:42:00.129Z,1.07
2022-12-19T15:44:32.211Z,1.09
2022-12-19T15:47:00.160Z,1.03
2022-12-19T15:49:26.607Z,1.05
2022-12-19T15:51:53.416Z,1.10
2022-12-19T15:57:33.676Z,0.98
2022-12-19T16:00:03.034Z,0.98
2022-12-19T16:03:04.576Z,1.00
2022-12-19T16:05:20.202Z,1.02
2022-12-19T16:07:47.472Z,1.07
2022-12-19T16:10:15.119Z,1.08
2022-12-19T16:12:43.061Z,1.01
2022-12-19T16:15:25.348Z,0.98
2022-12-19T16:17:55.586Z,0.75
2022-12-19T16:20:26.884Z,0.85
2022-12-19T16:22:53.587Z,0.90
2022-12-19T16:25:20.577Z,0.87
2022-12-19T16:27:54.974Z,0.95
2022-12-19T16:30:23.777Z,0.94
2022-12-19T16:32:50.787Z,0.99
2022-12-19T16:35:40.317Z,0.98
2022-12-19T16:38:08.868Z,0.93
2022-12-19T16:40:35.280Z,0.88
2022-12-19T16:43:28.702Z,0.91
2022-12-19T16:46:00.616Z,0.92
2022-12-19T16:48:30.258Z,1.04
2022-12-19T16:50:57.799Z,0.96
2022-12-19T16:53:24.315Z,1.00
2022-12-19T16:55:50.917Z,1.01
2022-12-19T16:58:23.389Z,0.93
2022-12-19T17:00:52.944Z,0.98
2022-12-19T17:03:25.406Z,0.93
2022-12-19T17:05:51.876Z,0.77
2022-12-19T17:08:19.156Z,0.67
2022-12-19T17:10:46.345Z,0.75
2022-12-19T17:13:15.526Z,0.80
2022-12-19T17:15:43.796Z,0.90
2022-12-19T17:18:33.037Z,0.88
2022-12-19T17:20:59.821Z,0.89
2022-12-19T17:23:29.298Z,0.87
2022-12-19T17:25:56.167Z,0.96
2022-12-19T17:28:22.888Z,0.92
2022-12-19T17:30:52.461Z,0.92
2022-12-19T17:33:22.116Z,0.87
2022-12-19T17:35:48.767Z,0.70
2022-12-19T17:38:16.977Z,0.76
2022-12-19T17:40:44.734Z,0.74
2022-12-19T17:43:14.254Z,0.75
2022-12-19T17:45:41.377Z,0.77
2022-12-19T17:48:26.271Z,0.76
2022-12-19T17:50:53.785Z,0.71
2022-12-19T17:53:20.793Z,0.77
2022-12-19T17:55:47.356Z,0.79
2022-12-19T17:58:13.791Z,0.88
2022-12-19T18:00:41.394Z,0.83
2022-12-19T18:03:23.625Z,0.93
2022-12-19T18:05:52.360Z,1.21
2022-12-19T18:08:32.884Z,1.07
2022-12-19T18:11:02.126Z,0.96
2022-12-19T18:13:31.045Z,0.95
2022-12-19T18:16:00.677Z,1.05
2022-12-19T18:18:34.051Z,1.04
2022-12-19T18:21:01.384Z,0.93
2022-12-19T18:23:28.387Z,0.94
2022-12-19T18:25:59.437Z,0.83
2022-12-19T18:28:28.222Z,0.76
2022-12-19T18:30:59.267Z,0.77
2022-12-19T18:33:26.410Z,0.80
2022-12-19T18:35:53.075Z,0.77
2022-12-19T18:38:21.628Z,0.82
2022-12-19T18:40:49.717Z,0.81
2022-12-19T18:43:17.052Z,0.86
2022-12-19T18:45:47.433Z,0.85
2022-12-19T18:48:26.917Z,0.94
2022-12-19T18:50:54.412Z,0.96
2022-12-19T18:53:23.125Z,0.70
2022-12-19T18:55:51.501Z,0.73
2022-12-19T18:58:18.650Z,0.81
2022-12-19T19:00:45.521Z,0.79
2022-12-19T19:03:15.947Z,0.89
2022-12-19T19:05:43.037Z,0.99
2022-12-19T19:08:22.005Z,0.93
2022-12-19T19:10:50.556Z,0.89
2022-12-19T19:13:18.661Z,0.79
2022-12-19T19:15:55.122Z,0.87
2022-12-19T19:18:29.729Z,0.80
2022-12-19T19:21:01.065Z,0.73
2022-12-19T19:23:33.407Z,0.78
2022-12-19T19:25:59.954Z,0.81
2022-12-19T19:28:29.032Z,0.80
2022-12-19T19:30:56.522Z,0.58
2022-12-19T19:33:30.474Z,0.66
2022-12-19T19:36:04.674Z,0.63
2022-12-19T19:38:36.658Z,0.66
2022-12-19T19:41:03.367Z,0.54
2022-12-19T19:43:33.944Z,0.47
2022-12-19T19:46:01.667Z,0.54
2022-12-19T19:48:28.161Z,0.47
2022-12-19T19:50:54.591Z,0.48
2022-12-19T19:53:21.782Z,0.48
2022-12-19T19:56:00.481Z,0.51
2022-12-19T19:58:27.866Z,0.57
2022-12-19T20:00:54.639Z,0.56
2022-12-19T20:03:23.316Z,0.77
2022-12-19T20:05:50.928Z,1.04
2022-12-19T20:08:17.455Z,0.93
2022-12-19T20:10:43.978Z,1.08
2022-12-19T20:13:11.120Z,1.18
2022-12-19T20:15:40.681Z,1.16
2022-12-19T20:18:09.536Z,1.06
2022-12-19T20:20:36.059Z,1.04
2022-12-19T20:23:05.144Z,1.02
2022-12-19T20:25:32.546Z,0.93
2022-12-19T20:27:59.051Z,0.90
2022-12-19T20:30:25.607Z,0.72
2022-12-19T20:32:52.103Z,0.75
2022-12-19T20:35:18.560Z,0.79
2022-12-19T20:37:45.072Z,0.68
2022-12-19T20:40:11.902Z,0.73
2022-12-19T20:42:38.397Z,0.80
2022-12-19T20:45:05.219Z,0.94
2022-12-19T20:47:31.671Z,1.00
2022-12-19T20:49:58.131Z,1.00
2022-12-19T20:52:24.627Z,1.01
2022-12-19T20:54:51.021Z,1.02
2022-12-19T20:57:17.486Z,1.05
2022-12-19T20:59:43.898Z,1.09
2022-12-19T21:02:11.336Z,1.06
2022-12-19T21:04:38.048Z,1.17
2022-12-19T21:07:04.546Z,1.07
2022-12-19T21:09:31.114Z,0.98
2022-12-19T21:11:57.553Z,0.86
2022-12-19T21:14:24.015Z,0.85
2022-12-19T21:16:50.470Z,0.82
2022-12-19T21:19:17.034Z,0.79
2022-12-19T21:21:43.516Z,0.57
2022-12-19T21:24:10.463Z,0.59
2022-12-19T21:26:36.910Z,0.72
2022-12-19T21:29:03.808Z,0.65
2022-12-19T21:31:30.529Z,0.64
2022-12-19T21:33:59.300Z,0.56
2022-12-19T21:36:26.933Z,0.48
2022-12-19T21:38:56.341Z,0.55
2022-12-19T21:41:23.002Z,0.54
2022-12-19T21:43:53.446Z,0.53
2022-12-19T21:46:22.595Z,0.57
2022-12-19T21:48:51.294Z,0.43
2022-12-19T21:51:20.523Z,0.45
2022-12-19T21:53:47.771Z,0.46
2022-12-19T21:56:34.364Z,0.41
2022-12-19T21:59:03.909Z,0.41
2022-12-19T22:01:30.994Z,0.42
2022-12-19T22:03:59.969Z,0.50
2022-12-19T22:06:30.058Z,0.49
2022-12-19T22:08:56.740Z,0.45
2022-12-19T22:11:23.635Z,0.46
2022-12-19T22:13:50.852Z,0.52
2022-12-19T22:16:17.608Z,0.52
2022-12-19T22:18:44.656Z,0.52
2022-12-19T22:21:13.333Z,0.64
2022-12-19T22:23:40.220Z,0.62
2022-12-19T22:26:13.200Z,0.62
2022-12-19T22:28:43.400Z,0.66
2022-12-19T22:31:33.036Z,0.70
2022-12-19T22:34:05.373Z,0.75
2022-12-19T22:36:33.833Z,0.69
2022-12-19T22:39:03.819Z,0.64
2022-12-19T22:41:30.259Z,0.66
2022-12-19T22:43:56.829Z,0.77
2022-12-19T22:46:26.433Z,0.73
2022-12-19T22:48:55.328Z,0.78
2022-12-19T22:51:21.844Z,0.92
2022-12-19T22:53:48.468Z,1.01
2022-12-19T22:56:18.544Z,0.93
2022-12-19T22:58:47.516Z,0.94
2022-12-19T23:01:18.423Z,1.03
2022-12-19T23:03:46.829Z,0.97
2022-12-19T23:06:14.211Z,1.06
2022-12-19T23:08:41.212Z,1.07
2022-12-19T23:11:11.926Z,1.11
2022-12-19T23:13:39.627Z,1.10
2022-12-19T23:16:06.674Z,1.13
2022-12-19T23:18:33.421Z,1.10
2022-12-19T23:21:09.153Z,1.09
2022-12-19T23:23:40.024Z,1.08
2022-12-19T23:26:15.168Z,1.07
2022-12-19T23:28:42.782Z,1.01
2022-12-19T23:31:12.077Z,0.99
2022-12-19T23:33:39.009Z,1.02
2022-12-19T23:36:06.338Z,1.01
2022-12-19T23:38:33.543Z,0.99
2022-12-19T23:41:01.749Z,1.04
2022-12-19T23:43:29.607Z,1.07
2022-12-19T23:45:56.321Z,1.05
2022-12-19T23:48:26.863Z,1.08
2022-12-19T23:51:00.900Z,1.02
2022-12-19T23:53:28.261Z,1.13
2022-12-19T23:55:54.794Z,1.29
2022-12-19T23:58:24.607Z,1.28
